createdAt,value
2019-04-20T00:00:39.965Z,6.90
2019-04-20T00:01:33.976Z,6.90
2019-04-20T00:02:31.617Z,6.60
2019-04-20T00:03:37.627Z,6.80
2019-04-20T00:04:34.228Z,6.50
2019-04-20T00:05:30.895Z,7.00
2019-04-20T00:06:32.612Z,7.20
2019-04-20T00:07:35.633Z,7.80
2019-04-20T00:08:34.851Z,7.70
2019-04-20T00:09:36.988Z,7.20
2019-04-20T00:10:42.490Z,7.20
2019-04-20T00:11:44.825Z,8.10
2019-04-20T00:12:46.082Z,7.90
2019-04-20T00:13:43.811Z,7.40
2019-04-20T00:14:34.557Z,7.30
2019-04-20T00:15:30.372Z,7.00
2019-04-20T00:16:31.549Z,7.70
2019-04-20T00:17:30.652Z,7.40
2019-04-20T00:18:34.491Z,6.90
2019-04-20T00:19:38.929Z,7.30
2019-04-20T00:20:35.279Z,7.50
2019-04-20T00:21:31.326Z,8.00
2019-04-20T00:22:37.252Z,7.90
2019-04-20T00:23:37.072Z,7.40
2019-04-20T00:24:34.425Z,7.50
2019-04-20T00:25:41.710Z,7.80
2019-04-20T00:27:02.003Z,7.60
2019-04-20T00:27:49.772Z,7.10
2019-04-20T00:28:49.419Z,7.30
2019-04-20T00:29:50.894Z,7.30
2019-04-20T00:30:50.396Z,7.20
2019-04-20T00:31:45.812Z,7.40
2019-04-20T00:32:47.882Z,6.90
2019-04-20T00:33:46.057Z,7.00
2019-04-20T00:34:36.454Z,7.20
2019-04-20T00:35:31.417Z,7.10
2019-04-20T00:36:30.781Z,7.10
2019-04-20T00:37:30.137Z,7.40
2019-04-20T00:38:37.603Z,6.80
2019-04-20T00:39:31.993Z,7.20
2019-04-20T00:40:30.638Z,7.20
2019-04-20T00:41:34.089Z,7.50
2019-04-20T00:42:39.082Z,7.60
2019-04-20T00:43:34.266Z,7.90
2019-04-20T00:44:37.349Z,7.60
2019-04-20T00:45:33.716Z,7.50
2019-04-20T00:46:39.578Z,7.40
2019-04-20T00:47:41.956Z,7.90
2019-04-20T00:48:41.592Z,9.20
2019-04-20T00:49:45.895Z,7.70
2019-04-20T00:50:44.437Z,8.40
2019-04-20T00:51:45.216Z,9.20
2019-04-20T00:52:46.977Z,8.80
2019-04-20T00:53:39.281Z,8.40
2019-04-20T00:54:30.995Z,8.50
2019-04-20T00:55:29.979Z,8.80
2019-04-20T00:56:30.953Z,8.00
2019-04-20T00:57:38.093Z,8.00
2019-04-20T00:58:46.492Z,7.80
2019-04-20T00:59:53.945Z,7.60
2019-04-20T01:00:53.604Z,8.10
2019-04-20T01:01:52.167Z,7.70
2019-04-20T01:02:45.517Z,7.40
2019-04-20T01:03:47.407Z,8.40
2019-04-20T01:05:55.729Z,7.80
2019-04-20T01:06:46.776Z,7.50
2019-04-20T01:07:39.506Z,7.30
2019-04-20T01:08:31.806Z,7.40
2019-04-20T01:09:30.877Z,7.60
2019-04-20T01:10:37.082Z,7.90
2019-04-20T01:11:36.892Z,7.70
2019-04-20T01:12:33.808Z,7.50
2019-04-20T01:13:31.791Z,7.20
2019-04-20T01:14:36.299Z,6.70
2019-04-20T01:15:38.656Z,7.80
2019-04-20T01:16:38.600Z,7.80
2019-04-20T01:17:30.716Z,7.40
2019-04-20T01:18:29.691Z,7.80
2019-04-20T01:19:29.663Z,7.10
2019-04-20T01:20:29.661Z,7.20
2019-04-20T01:21:31.799Z,7.20
2019-04-20T01:22:33.957Z,8.00
2019-04-20T01:23:38.223Z,8.00
2019-04-20T01:24:35.361Z,7.20
2019-04-20T01:25:35.576Z,7.10
2019-04-20T01:26:31.332Z,6.60
2019-04-20T01:27:42.457Z,6.90
2019-04-20T01:28:46.774Z,6.90
2019-04-20T01:29:39.415Z,6.90
2019-04-20T01:30:38.697Z,7.40
2019-04-20T01:31:38.388Z,7.20
2019-04-20T01:32:41.625Z,7.20
2019-04-20T01:33:42.454Z,6.70
2019-04-20T01:34:41.640Z,7.40
2019-04-20T01:35:43.888Z,6.90
2019-04-20T01:36:45.738Z,6.80
2019-04-20T01:37:46.943Z,7.70
2019-04-20T01:38:45.032Z,7.00
2019-04-20T01:39:37.066Z,6.90
2019-04-20T01:40:31.629Z,6.90
2019-04-20T01:41:30.699Z,6.90
2019-04-20T01:42:30.066Z,7.30
2019-04-20T01:43:29.407Z,7.00
2019-04-20T01:44:35.378Z,7.00
2019-04-20T01:45:34.641Z,7.50
2019-04-20T01:46:31.705Z,7.50
2019-04-20T01:47:36.253Z,7.40
2019-04-20T01:48:33.987Z,7.20
2019-04-20T01:49:33.596Z,7.20
2019-04-20T01:50:33.659Z,7.40
2019-04-20T01:51:39.211Z,7.80
2019-04-20T01:52:43.992Z,7.20
2019-04-20T01:53:44.275Z,7.30
2019-04-20T01:54:52.778Z,7.70
2019-04-20T01:55:50.694Z,7.40
2019-04-20T01:56:40.125Z,7.50
2019-04-20T01:57:44.950Z,7.50
2019-04-20T01:58:47.456Z,7.40
2019-04-20T01:59:40.072Z,7.30
2019-04-20T02:00:35.617Z,7.50
2019-04-20T02:01:34.361Z,7.30
2019-04-20T02:02:34.395Z,7.30
2019-04-20T02:03:36.929Z,7.80
2019-04-20T02:04:34.648Z,7.70
2019-04-20T02:05:34.006Z,7.20
2019-04-20T02:06:35.308Z,7.50
2019-04-20T02:07:35.530Z,8.00
2019-04-20T02:08:32.326Z,7.10
2019-04-20T02:09:31.177Z,7.40
2019-04-20T02:10:39.534Z,7.40
2019-04-20T02:11:34.964Z,7.70
2019-04-20T02:12:34.205Z,7.40
2019-04-20T02:13:36.121Z,7.60
2019-04-20T02:14:40.317Z,8.10
2019-04-20T02:15:37.646Z,7.60
2019-04-20T02:16:38.301Z,7.70
2019-04-20T02:17:38.543Z,8.10
2019-04-20T02:18:42.124Z,7.90
2019-04-20T02:19:43.211Z,7.70
2019-04-20T02:20:49.112Z,8.00
2019-04-20T02:21:48.505Z,7.40
2019-04-20T02:22:46.525Z,7.70
2019-04-20T02:23:38.744Z,7.40
2019-04-20T02:24:30.064Z,7.80
2019-04-20T02:25:29.135Z,7.70
2019-04-20T02:26:30.117Z,7.60
2019-04-20T02:27:36.737Z,8.00
2019-04-20T02:28:53.660Z,8.00
2019-04-20T02:29:50.322Z,7.90
2019-04-20T02:31:06.514Z,7.80
2019-04-20T02:32:11.693Z,8.10
2019-04-20T02:33:07.080Z,8.10
2019-04-20T02:34:15.689Z,8.00
2019-04-20T02:35:01.468Z,7.90
2019-04-20T02:38:15.123Z,8.60
2019-04-20T02:39:22.134Z,8.20
2019-04-20T02:40:07.099Z,8.40
2019-04-20T02:42:17.884Z,8.40
2019-04-20T02:43:15.678Z,7.90
2019-04-20T02:45:13.045Z,8.60
2019-04-20T02:46:15.238Z,8.30
2019-04-20T02:47:11.636Z,8.10
2019-04-20T02:48:01.474Z,8.60
2019-04-20T02:49:12.882Z,8.50
2019-04-20T02:49:57.584Z,8.60
2019-04-20T02:50:59.277Z,8.50
2019-04-20T02:53:04.472Z,9.10
2019-04-20T02:54:13.091Z,8.40
2019-04-20T02:55:09.442Z,8.60
2019-04-20T02:56:09.017Z,8.30
2019-04-20T02:57:07.429Z,9.10
2019-04-20T02:58:00.621Z,9.10
2019-04-20T02:59:31.535Z,9.20
2019-04-20T03:00:54.022Z,9.20
2019-04-20T03:01:51.897Z,9.40
2019-04-20T03:02:42.604Z,9.00
2019-04-20T03:03:37.666Z,9.10
2019-04-20T03:04:39.969Z,9.20
2019-04-20T03:05:39.458Z,8.60
2019-04-20T03:06:39.843Z,9.10
2019-04-20T03:07:50.477Z,9.20
2019-04-20T03:08:54.574Z,9.30
2019-04-20T03:09:52.624Z,9.10
2019-04-20T03:10:55.846Z,9.60
2019-04-20T03:11:59.583Z,9.50
2019-04-20T03:12:52.164Z,9.10
2019-04-20T03:13:53.145Z,9.40
2019-04-20T03:14:44.997Z,8.80
2019-04-20T03:15:51.981Z,9.00
2019-04-20T03:16:45.849Z,8.90
2019-04-20T03:17:50.998Z,8.70
2019-04-20T03:18:45.570Z,9.00
2019-04-20T03:19:46.367Z,9.40
2019-04-20T03:20:54.917Z,8.90
2019-04-20T03:21:51.329Z,8.70
2019-04-20T03:23:12.878Z,9.00
2019-04-20T03:23:53.815Z,9.20
2019-04-20T03:24:54.423Z,9.10
2019-04-20T03:25:55.322Z,8.80
2019-04-20T03:26:48.073Z,8.90
2019-04-20T03:27:46.142Z,8.80
2019-04-20T03:28:44.082Z,8.90
2019-04-20T03:30:07.864Z,8.70
2019-04-20T03:32:22.285Z,8.30
2019-04-20T03:34:15.283Z,9.00
2019-04-20T03:36:00.369Z,8.60
2019-04-20T03:37:00.392Z,8.40
2019-04-20T03:37:52.883Z,8.00
2019-04-20T03:38:48.269Z,8.80
2019-04-20T03:39:46.454Z,8.50
2019-04-20T03:40:40.766Z,8.30
2019-04-20T03:41:36.669Z,9.30
2019-04-20T03:42:29.110Z,9.40
2019-04-20T03:43:28.790Z,8.50
2019-04-20T03:44:31.206Z,8.40
2019-04-20T03:45:37.439Z,8.60
2019-04-20T03:46:36.714Z,9.00
2019-04-20T03:47:38.439Z,8.60
2019-04-20T03:48:46.742Z,8.40
2019-04-20T03:49:54.804Z,8.60
2019-04-20T03:50:50.408Z,8.90
2019-04-20T03:51:53.332Z,9.30
2019-04-20T03:52:51.401Z,8.70
2019-04-20T03:53:50.284Z,8.60
2019-04-20T03:54:41.275Z,9.30
2019-04-20T03:55:45.790Z,9.20
2019-04-20T03:56:49.596Z,9.10
2019-04-20T03:57:54.207Z,8.20
2019-04-20T03:58:47.152Z,8.90
2019-04-20T03:59:48.502Z,9.00
2019-04-20T04:00:45.781Z,8.90
2019-04-20T04:02:10.426Z,8.90
2019-04-20T04:03:02.781Z,8.90
2019-04-20T04:03:53.317Z,8.80
2019-04-20T04:04:51.850Z,9.20
2019-04-20T04:05:44.631Z,8.70
2019-04-20T04:06:41.647Z,9.40
2019-04-20T04:07:38.119Z,9.80
2019-04-20T04:08:36.337Z,9.00
2019-04-20T04:09:42.558Z,9.30
2019-04-20T04:10:48.543Z,9.60
2019-04-20T04:11:43.537Z,9.10
2019-04-20T04:12:35.078Z,9.40
2019-04-20T04:13:29.101Z,9.50
2019-04-20T04:14:28.452Z,9.20
2019-04-20T04:15:27.744Z,9.60
2019-04-20T04:16:36.403Z,9.30
2019-04-20T04:17:34.976Z,9.20
2019-04-20T04:18:35.442Z,9.40
2019-04-20T04:19:34.787Z,9.70
2019-04-20T04:20:39.738Z,9.40
2019-04-20T04:21:44.725Z,9.30
2019-04-20T04:22:44.074Z,10.10
2019-04-20T04:23:44.517Z,9.70
2019-04-20T04:24:36.820Z,9.00
2019-04-20T04:25:42.700Z,9.30
2019-04-20T04:26:46.272Z,9.00
2019-04-20T04:27:48.891Z,9.00
2019-04-20T04:28:43.803Z,9.00
2019-04-20T04:29:46.837Z,9.10
2019-04-20T04:30:40.166Z,9.10
2019-04-20T04:31:55.428Z,9.10
2019-04-20T04:33:09.989Z,9.30
2019-04-20T04:34:44.714Z,9.00
2019-04-20T04:35:44.240Z,9.30
2019-04-20T04:36:50.170Z,9.60
2019-04-20T04:37:45.905Z,8.90
2019-04-20T04:38:47.500Z,8.80
2019-04-20T04:39:48.811Z,8.90
2019-04-20T04:40:58.947Z,9.10
2019-04-20T04:41:51.177Z,8.90
2019-04-20T04:42:52.537Z,9.70
2019-04-20T04:43:48.079Z,9.40
2019-04-20T04:44:41.129Z,9.10
2019-04-20T04:45:30.502Z,9.40
2019-04-20T04:46:27.407Z,9.80
2019-04-20T04:47:28.434Z,9.30
2019-04-20T04:48:32.087Z,9.40
2019-04-20T04:49:34.137Z,9.30
2019-04-20T04:50:31.336Z,9.50
2019-04-20T04:51:38.580Z,9.20
2019-04-20T04:52:39.789Z,9.00
2019-04-20T04:53:42.904Z,8.90
2019-04-20T04:54:37.634Z,9.40
2019-04-20T04:55:38.145Z,9.60
2019-04-20T04:56:29.122Z,9.60
2019-04-20T04:57:28.525Z,9.00
2019-04-20T04:58:27.770Z,9.20
2019-04-20T04:59:27.547Z,9.30
2019-04-20T05:00:31.394Z,9.30
2019-04-20T05:01:30.722Z,8.90
2019-04-20T05:02:32.538Z,9.20
2019-04-20T05:03:45.397Z,8.90
2019-04-20T05:04:49.844Z,9.30
2019-04-20T05:05:51.873Z,9.20
2019-04-20T05:06:41.340Z,9.10
2019-04-20T05:07:43.752Z,9.20
2019-04-20T05:08:34.463Z,9.30
2019-04-20T05:09:28.172Z,9.60
2019-04-20T05:10:27.125Z,9.40
2019-04-20T05:11:27.927Z,8.50
2019-04-20T05:12:30.081Z,9.40
2019-04-20T05:13:36.829Z,9.10
2019-04-20T05:14:40.556Z,8.90
2019-04-20T05:15:37.669Z,9.00
2019-04-20T05:16:45.042Z,9.00
2019-04-20T05:17:53.196Z,8.80
2019-04-20T05:18:50.203Z,9.20
2019-04-20T05:19:47.790Z,8.80
2019-04-20T05:20:54.596Z,9.40
2019-04-20T05:21:56.471Z,9.30
2019-04-20T05:22:46.857Z,9.20
2019-04-20T05:23:37.281Z,8.80
2019-04-20T05:24:43.823Z,9.60
2019-04-20T05:25:54.677Z,8.80
2019-04-20T05:26:49.321Z,8.90
2019-04-20T05:27:49.685Z,8.70
2019-04-20T05:28:40.760Z,9.10
2019-04-20T05:29:31.698Z,8.80
2019-04-20T05:30:28.780Z,8.60
2019-04-20T05:31:34.038Z,8.60
2019-04-20T05:32:37.863Z,9.00
2019-04-20T05:33:48.576Z,9.30
2019-04-20T05:34:52.587Z,8.80
2019-04-20T05:35:49.886Z,8.70
2019-04-20T05:36:45.113Z,8.70
2019-04-20T05:37:53.724Z,8.60
2019-04-20T05:38:46.953Z,8.60
2019-04-20T05:39:51.938Z,8.40
2019-04-20T05:40:54.219Z,8.80
2019-04-20T05:41:49.541Z,8.90
2019-04-20T05:42:48.885Z,8.60
2019-04-20T05:43:41.212Z,8.70
2019-04-20T05:44:49.853Z,8.10
2019-04-20T05:45:42.718Z,8.40
2019-04-20T05:46:50.454Z,8.20
2019-04-20T05:47:48.520Z,8.90
2019-04-20T05:48:46.278Z,8.30
2019-04-20T05:49:46.852Z,8.20
2019-04-20T05:50:43.417Z,8.50
2019-04-20T05:51:51.129Z,8.30
2019-04-20T05:53:46.017Z,8.20
2019-04-20T05:54:51.257Z,8.50
2019-04-20T05:55:49.256Z,7.90
2019-04-20T05:56:45.878Z,8.20
2019-04-20T05:57:50.538Z,8.60
2019-04-20T05:58:52.288Z,8.40
2019-04-20T05:59:55.692Z,8.00
2019-04-20T06:00:57.502Z,8.00
2019-04-20T06:01:53.154Z,8.40
2019-04-20T06:02:44.703Z,8.40
2019-04-20T06:03:42.367Z,8.40
2019-04-20T06:04:59.666Z,8.80
2019-04-20T06:05:52.627Z,8.30
2019-04-20T06:06:49.726Z,8.50
2019-04-20T06:07:48.762Z,8.10
2019-04-20T06:08:53.959Z,8.80
2019-04-20T06:09:48.179Z,8.10
2019-04-20T06:10:52.159Z,7.50
2019-04-20T06:12:04.297Z,8.20
2019-04-20T06:12:45.897Z,8.20
2019-04-20T06:13:40.702Z,8.40
2019-04-20T06:14:43.217Z,7.30
2019-04-20T06:15:51.728Z,8.20
2019-04-20T06:16:52.641Z,8.00
2019-04-20T06:17:49.249Z,8.20
2019-04-20T06:18:44.278Z,8.00
2019-04-20T06:19:44.187Z,8.40
2019-04-20T06:20:50.369Z,8.10
2019-04-20T06:21:54.340Z,8.40
2019-04-20T06:22:49.675Z,8.00
2019-04-20T06:23:53.444Z,7.50
2019-04-20T06:24:54.814Z,7.70
2019-04-20T06:26:04.072Z,8.20
2019-04-20T06:26:56.035Z,7.50
2019-04-20T06:28:02.363Z,8.10
2019-04-20T06:28:42.948Z,7.70
2019-04-20T06:29:47.008Z,7.90
2019-04-20T06:30:41.766Z,8.00
2019-04-20T06:31:45.898Z,7.90
2019-04-20T06:32:44.727Z,7.80
2019-04-20T06:34:02.555Z,7.60
2019-04-20T06:34:41.340Z,7.90
2019-04-20T06:36:00.893Z,8.50
2019-04-20T06:36:49.914Z,8.00
2019-04-20T06:37:54.944Z,7.40
2019-04-20T06:38:59.820Z,7.90
2019-04-20T06:39:58.958Z,8.10
2019-04-20T06:40:59.416Z,8.00
2019-04-20T06:42:06.797Z,8.20
2019-04-20T06:42:48.161Z,7.90
2019-04-20T06:43:56.080Z,8.00
2019-04-20T06:44:45.770Z,7.50
2019-04-20T06:45:55.157Z,7.50
2019-04-20T06:46:52.437Z,7.70
2019-04-20T06:47:54.609Z,8.10
2019-04-20T06:48:52.325Z,8.00
2019-04-20T06:49:42.056Z,7.60
2019-04-20T06:50:44.465Z,7.80
2019-04-20T06:51:47.380Z,7.80
2019-04-20T06:52:42.184Z,7.70
2019-04-20T06:53:46.842Z,7.40
2019-04-20T06:54:48.714Z,7.40
2019-04-20T06:55:48.588Z,8.00
2019-04-20T06:56:52.516Z,7.90
2019-04-20T06:58:01.528Z,7.60
2019-04-20T06:58:49.853Z,7.50
2019-04-20T06:59:46.016Z,7.50
2019-04-20T07:00:55.332Z,7.60
2019-04-20T07:01:59.209Z,7.90
2019-04-20T07:02:52.981Z,7.60
2019-04-20T07:05:08.762Z,8.50
2019-04-20T07:05:45.779Z,7.60
2019-04-20T07:08:57.363Z,7.20
2019-04-20T07:09:59.870Z,7.80
2019-04-20T07:10:56.348Z,7.70
2019-04-20T07:11:46.725Z,7.60
2019-04-20T07:12:37.820Z,7.90
2019-04-20T07:13:36.090Z,8.20
2019-04-20T07:14:41.476Z,7.80
2019-04-20T07:15:41.591Z,7.80
2019-04-20T07:16:49.601Z,7.10
2019-04-20T07:17:54.936Z,7.50
2019-04-20T07:18:52.072Z,7.50
2019-04-20T07:19:45.355Z,7.50
2019-04-20T07:20:57.738Z,7.70
2019-04-20T07:22:01.942Z,7.00
2019-04-20T07:23:04.552Z,8.30
2019-04-20T07:23:49.708Z,7.10
2019-04-20T07:24:53.261Z,7.30
2019-04-20T07:25:48.282Z,8.00
2019-04-20T07:26:50.214Z,7.60
2019-04-20T07:27:49.408Z,7.80
2019-04-20T07:28:53.080Z,7.50
2019-04-20T07:29:53.368Z,7.30
2019-04-20T07:30:45.227Z,7.20
2019-04-20T07:31:44.342Z,6.80
2019-04-20T07:32:52.482Z,7.00
2019-04-20T07:33:49.454Z,6.70
2019-04-20T07:34:47.559Z,6.70
2019-04-20T07:35:49.040Z,6.40
2019-04-20T07:37:04.610Z,6.60
2019-04-20T07:38:15.394Z,6.90
2019-04-20T07:38:46.426Z,6.60
2019-04-20T07:39:48.206Z,6.10
2019-04-20T07:40:44.071Z,6.40
2019-04-20T07:41:57.237Z,6.10
2019-04-20T07:42:52.334Z,6.70
2019-04-20T07:44:01.598Z,6.00
2019-04-20T07:44:49.769Z,6.40
2019-04-20T07:45:41.649Z,6.70
2019-04-20T07:47:07.675Z,6.30
2019-04-20T07:47:53.807Z,6.10
2019-04-20T07:48:51.920Z,6.50
2019-04-20T07:49:45.671Z,6.30
2019-04-20T07:50:43.467Z,6.80
2019-04-20T07:51:32.094Z,6.10
2019-04-20T07:52:42.258Z,6.90
2019-04-20T07:53:43.081Z,6.90
2019-04-20T07:55:06.013Z,7.10
2019-04-20T07:55:52.340Z,7.00
2019-04-20T07:56:47.685Z,46.90
2019-04-20T07:57:45.990Z,78.80
2019-04-20T07:58:35.815Z,88.60
2019-04-20T07:59:39.721Z,34.70
2019-04-20T08:00:55.139Z,136.50
2019-04-20T08:01:53.055Z,37.00
2019-04-20T08:02:51.418Z,23.70
2019-04-20T08:03:51.538Z,9.00
2019-04-20T08:04:44.660Z,8.60
2019-04-20T08:05:39.430Z,6.40
2019-04-20T08:06:36.932Z,6.20
2019-04-20T08:07:39.147Z,6.00
2019-04-20T08:08:43.878Z,5.90
2019-04-20T08:09:35.214Z,5.90
2019-04-20T08:10:42.116Z,6.10
2019-04-20T08:11:50.787Z,6.60
2019-04-20T08:12:51.763Z,5.70
2019-04-20T08:14:49.161Z,5.90
2019-04-20T08:17:05.230Z,6.20
2019-04-20T08:17:51.375Z,6.00
2019-04-20T08:18:51.437Z,6.50
2019-04-20T08:19:49.511Z,7.10
2019-04-20T08:20:45.068Z,6.50
2019-04-20T08:21:48.608Z,6.90
2019-04-20T08:22:47.685Z,6.50
2019-04-20T08:23:47.335Z,6.30
2019-04-20T08:24:42.831Z,6.50
2019-04-20T08:25:39.798Z,6.30
2019-04-20T08:26:31.106Z,6.30
2019-04-20T08:27:25.970Z,6.40
2019-04-20T08:28:34.973Z,6.00
2019-04-20T08:29:41.796Z,6.00
2019-04-20T08:30:42.290Z,11.80
2019-04-20T08:31:39.821Z,9.40
2019-04-20T08:32:41.473Z,7.50
2019-04-20T08:33:55.095Z,6.20
2019-04-20T08:34:50.394Z,7.40
2019-04-20T08:35:56.549Z,6.80
2019-04-20T08:36:46.459Z,7.20
2019-04-20T08:37:48.964Z,7.40
2019-04-20T08:39:08.353Z,9.30
2019-04-20T08:40:49.071Z,5.90
2019-04-20T08:41:53.576Z,5.70
2019-04-20T08:42:59.706Z,5.40
2019-04-20T08:45:46.692Z,5.30
2019-04-20T08:46:49.523Z,5.50
2019-04-20T08:47:54.907Z,5.40
2019-04-20T08:48:46.811Z,5.40
2019-04-20T08:49:52.237Z,4.90
2019-04-20T08:50:47.040Z,5.20
2019-04-20T08:52:00.019Z,5.00
2019-04-20T08:53:47.067Z,5.80
2019-04-20T08:54:37.862Z,5.30
2019-04-20T08:55:41.581Z,6.90
2019-04-20T08:56:36.143Z,7.60
2019-04-20T08:57:26.918Z,5.00
2019-04-20T08:58:24.896Z,5.70
2019-04-20T08:59:25.410Z,5.40
2019-04-20T09:00:33.340Z,6.10
2019-04-20T09:01:30.336Z,5.80
2019-04-20T09:02:25.870Z,6.20
2019-04-20T09:03:28.919Z,6.70
2019-04-20T09:04:37.401Z,6.60
2019-04-20T09:05:35.876Z,5.90
2019-04-20T09:06:39.916Z,6.70
2019-04-20T09:07:28.851Z,5.80
2019-04-20T09:08:31.743Z,5.90
2019-04-20T09:10:00.383Z,7.20
2019-04-20T09:10:42.398Z,7.70
2019-04-20T09:12:40.075Z,34.00
2019-04-20T09:13:35.328Z,54.40
2019-04-20T09:14:27.003Z,72.00
2019-04-20T09:15:25.342Z,7.20
2019-04-20T09:16:32.388Z,4.50
2019-04-20T09:17:34.826Z,4.60
2019-04-20T09:18:34.346Z,4.80
2019-04-20T09:19:34.342Z,4.60
2019-04-20T09:20:38.453Z,4.40
2019-04-20T09:21:35.519Z,4.60
2019-04-20T09:22:34.234Z,4.70
2019-04-20T09:23:38.115Z,4.90
2019-04-20T09:24:45.135Z,4.80
2019-04-20T09:26:02.417Z,4.60
2019-04-20T09:26:45.663Z,4.60
2019-04-20T09:27:34.981Z,4.50
2019-04-20T09:28:35.412Z,4.80
2019-04-20T09:29:36.846Z,4.70
2019-04-20T09:30:37.320Z,4.10
2019-04-20T09:31:40.921Z,4.60
2019-04-20T09:32:39.549Z,5.10
2019-04-20T09:33:43.979Z,4.50
2019-04-20T09:34:48.612Z,5.00
2019-04-20T09:35:44.407Z,4.50
2019-04-20T09:36:38.603Z,5.20
2019-04-20T09:37:43.359Z,5.40
2019-04-20T09:38:40.834Z,5.50
2019-04-20T09:39:33.585Z,5.20
2019-04-20T09:40:40.483Z,5.20
2019-04-20T09:41:47.377Z,5.00
2019-04-20T09:42:25.181Z,4.80
2019-04-20T09:43:24.155Z,5.20
2019-04-20T09:44:30.364Z,4.70
2019-04-20T09:45:33.921Z,5.40
2019-04-20T09:46:26.300Z,6.10
2019-04-20T09:47:33.789Z,6.20
2019-04-20T09:48:33.294Z,6.60
2019-04-20T09:49:40.263Z,7.20
2019-04-20T09:50:37.718Z,6.80
2019-04-20T09:51:43.626Z,4.90
2019-04-20T09:52:41.214Z,5.10
2019-04-20T09:53:37.080Z,5.00
2019-04-20T09:54:42.911Z,4.80
2019-04-20T09:55:36.298Z,5.10
2019-04-20T09:56:39.785Z,5.30
2019-04-20T09:57:44.020Z,5.30
2019-04-20T09:58:46.463Z,5.60
2019-04-20T09:59:44.708Z,5.50
2019-04-20T10:00:42.177Z,5.70
2019-04-20T10:01:32.611Z,5.40
2019-04-20T10:02:29.808Z,5.60
2019-04-20T10:03:24.953Z,6.00
2019-04-20T10:04:24.093Z,5.40
2019-04-20T10:05:25.296Z,5.30
2019-04-20T10:06:28.162Z,5.00
2019-04-20T10:07:27.463Z,5.30
2019-04-20T10:08:26.017Z,5.00
2019-04-20T10:09:27.939Z,7.00
2019-04-20T10:10:32.257Z,6.00
2019-04-20T10:11:25.510Z,5.40
2019-04-20T10:12:24.251Z,5.10
2019-04-20T10:13:25.071Z,5.20
2019-04-20T10:14:24.850Z,5.20
2019-04-20T10:15:27.583Z,5.40
2019-04-20T10:16:23.867Z,5.40
2019-04-20T10:17:23.776Z,6.00
2019-04-20T10:18:23.834Z,5.70
2019-04-20T10:19:30.393Z,5.50
2019-04-20T10:20:30.954Z,5.90
2019-04-20T10:21:25.715Z,6.10
2019-04-20T10:22:24.555Z,5.90
2019-04-20T10:23:24.815Z,5.40
2019-04-20T10:24:24.394Z,5.00
2019-04-20T10:25:24.530Z,5.30
2019-04-20T10:26:24.769Z,5.40
2019-04-20T10:27:24.307Z,5.00
2019-04-20T10:28:23.676Z,5.50
2019-04-20T10:29:23.782Z,5.40
2019-04-20T10:30:23.637Z,5.00
2019-04-20T10:31:24.540Z,5.60
2019-04-20T10:32:30.930Z,5.20
2019-04-20T10:33:25.774Z,6.20
2019-04-20T10:34:24.157Z,5.60
2019-04-20T10:35:23.582Z,5.60
2019-04-20T10:36:23.667Z,5.50
2019-04-20T10:37:23.876Z,5.70
2019-04-20T10:38:23.549Z,5.50
2019-04-20T10:39:24.598Z,5.90
2019-04-20T10:40:40.560Z,5.10
2019-04-20T10:41:35.968Z,6.40
2019-04-20T10:42:25.966Z,6.00
2019-04-20T10:43:23.946Z,5.80
2019-04-20T10:44:23.556Z,6.00
2019-04-20T10:45:24.191Z,6.20
2019-04-20T10:46:24.816Z,5.70
2019-04-20T10:47:23.483Z,6.20
2019-04-20T10:48:23.630Z,6.10
2019-04-20T10:49:24.851Z,6.00
2019-04-20T10:50:23.417Z,5.80
2019-04-20T10:51:23.901Z,5.20
2019-04-20T10:52:23.648Z,5.60
2019-04-20T10:53:23.810Z,5.90
2019-04-20T10:54:24.659Z,6.00
2019-04-20T10:55:23.370Z,6.10
2019-04-20T10:56:23.350Z,5.70
2019-04-20T10:57:23.732Z,6.00
2019-04-20T10:58:23.325Z,6.80
2019-04-20T10:59:23.579Z,10.10
2019-04-20T11:00:23.783Z,7.20
2019-04-20T11:01:23.297Z,5.80
2019-04-20T11:02:23.597Z,5.20
2019-04-20T11:03:24.739Z,5.60
2019-04-20T11:04:23.271Z,5.90
2019-04-20T11:05:24.459Z,8.90
2019-04-20T11:06:24.630Z,7.90
2019-04-20T11:07:23.251Z,6.00
2019-04-20T11:08:24.389Z,6.70
2019-04-20T11:09:23.206Z,6.30
2019-04-20T11:10:28.533Z,6.00
2019-04-20T11:11:28.308Z,5.50
2019-04-20T11:12:24.303Z,6.00
2019-04-20T11:13:23.524Z,6.10
2019-04-20T11:14:31.001Z,7.40
2019-04-20T11:15:24.226Z,6.80
2019-04-20T11:16:24.272Z,6.20
2019-04-20T11:17:24.337Z,5.90
2019-04-20T11:18:23.113Z,5.30
2019-04-20T11:19:23.306Z,5.40
2019-04-20T11:20:23.465Z,5.20
2019-04-20T11:21:24.610Z,5.70
2019-04-20T11:22:24.151Z,5.40
2019-04-20T11:23:24.328Z,5.90
2019-04-20T11:24:23.071Z,5.40
2019-04-20T11:25:24.300Z,5.50
2019-04-20T11:26:24.301Z,5.20
2019-04-20T11:27:23.039Z,5.40
2019-04-20T11:28:24.072Z,5.20
2019-04-20T11:29:24.154Z,5.00
2019-04-20T11:30:22.986Z,5.60
2019-04-20T11:31:26.814Z,5.10
2019-04-20T11:32:24.245Z,4.90
2019-04-20T11:33:22.950Z,5.20
2019-04-20T11:34:28.595Z,5.40
2019-04-20T11:35:30.497Z,5.60
2019-04-20T11:36:25.282Z,5.30
2019-04-20T11:37:22.902Z,5.00
2019-04-20T11:38:24.056Z,5.10
2019-04-20T11:39:23.076Z,5.30
2019-04-20T11:40:23.309Z,5.30
2019-04-20T11:41:26.122Z,5.40
2019-04-20T11:42:23.858Z,6.50
2019-04-20T11:43:23.949Z,6.00
2019-04-20T11:44:23.487Z,5.30
2019-04-20T11:45:22.824Z,5.80
2019-04-20T11:46:22.894Z,5.50
2019-04-20T11:47:22.799Z,5.10
2019-04-20T11:48:23.375Z,5.20
2019-04-20T11:49:23.647Z,5.60
2019-04-20T11:50:22.768Z,5.30
2019-04-20T11:51:23.389Z,5.30
2019-04-20T11:52:23.723Z,5.40
2019-04-20T11:53:26.544Z,5.50
2019-04-20T11:54:24.240Z,5.70
2019-04-20T11:55:22.721Z,6.30
2019-04-20T11:56:26.730Z,6.00
2019-04-20T11:57:24.986Z,5.70
2019-04-20T11:58:23.850Z,6.10
2019-04-20T11:59:23.169Z,6.30
2019-04-20T12:00:25.132Z,6.20
2019-04-20T12:01:26.950Z,6.40
2019-04-20T12:02:31.330Z,6.70
2019-04-20T12:03:31.569Z,6.30
2019-04-20T12:04:32.758Z,6.00
2019-04-20T12:05:34.696Z,6.10
2019-04-20T12:06:23.606Z,5.90
2019-04-20T12:07:22.667Z,5.60
2019-04-20T12:08:22.960Z,6.10
2019-04-20T12:09:22.599Z,5.90
2019-04-20T12:10:24.209Z,5.20
2019-04-20T12:11:32.081Z,5.30
2019-04-20T12:12:34.550Z,5.10
2019-04-20T12:13:24.819Z,4.80
2019-04-20T12:14:22.900Z,5.00
2019-04-20T12:15:22.521Z,5.40
2019-04-20T12:16:23.602Z,4.90
2019-04-20T12:17:23.685Z,6.80
2019-04-20T12:18:23.385Z,5.80
2019-04-20T12:19:22.879Z,5.30
2019-04-20T12:20:22.793Z,5.10
2019-04-20T12:21:23.122Z,10.40
2019-04-20T12:22:22.459Z,5.00
2019-04-20T12:23:22.487Z,4.90
2019-04-20T12:24:22.698Z,6.40
2019-04-20T12:25:23.629Z,5.80
2019-04-20T12:26:22.689Z,4.70
2019-04-20T12:27:22.893Z,5.20
2019-04-20T12:28:22.368Z,5.10
2019-04-20T12:29:23.668Z,4.70
2019-04-20T12:30:23.802Z,5.00
2019-04-20T12:31:24.769Z,4.90
2019-04-20T12:32:27.065Z,5.00
2019-04-20T12:33:24.374Z,4.80
2019-04-20T12:34:22.350Z,4.80
2019-04-20T12:35:22.422Z,4.60
2019-04-20T12:36:22.298Z,4.50
2019-04-20T12:37:22.949Z,4.30
2019-04-20T12:38:23.142Z,4.90
2019-04-20T12:39:22.539Z,4.70
2019-04-20T12:40:22.232Z,4.80
2019-04-20T12:41:34.447Z,5.10
2019-04-20T12:42:23.241Z,5.50
2019-04-20T12:43:23.530Z,5.00
2019-04-20T12:44:22.192Z,4.60
2019-04-20T12:45:22.183Z,5.60
2019-04-20T12:46:23.433Z,5.30
2019-04-20T12:47:22.203Z,4.80
2019-04-20T12:48:22.186Z,5.70
2019-04-20T12:49:23.461Z,5.80
2019-04-20T12:50:23.407Z,5.20
2019-04-20T12:51:25.213Z,5.10
2019-04-20T12:52:23.113Z,5.20
2019-04-20T12:53:22.352Z,4.90
2019-04-20T12:54:22.762Z,5.10
2019-04-20T12:55:22.892Z,5.50
2019-04-20T12:56:22.382Z,5.50
2019-04-20T12:57:22.667Z,5.20
2019-04-20T12:58:22.834Z,4.80
2019-04-20T12:59:23.343Z,4.90
2019-04-20T13:00:22.051Z,5.00
2019-04-20T13:01:23.967Z,4.50
2019-04-20T13:02:23.137Z,5.60
2019-04-20T13:03:23.452Z,4.70
2019-04-20T13:04:22.701Z,4.90
2019-04-20T13:05:22.218Z,5.30
2019-04-20T13:06:21.963Z,4.70
2019-04-20T13:07:22.773Z,5.10
2019-04-20T13:08:29.552Z,4.90
2019-04-20T13:09:22.973Z,4.90
2019-04-20T13:10:23.196Z,4.90
2019-04-20T13:11:22.513Z,4.80
2019-04-20T13:12:21.923Z,4.40
2019-04-20T13:13:22.691Z,4.70
2019-04-20T13:14:22.188Z,5.30
2019-04-20T13:15:22.327Z,5.20
2019-04-20T13:16:22.643Z,4.80
2019-04-20T13:17:22.167Z,4.80
2019-04-20T13:18:23.219Z,5.60
2019-04-20T13:19:21.843Z,7.10
2019-04-20T13:20:21.889Z,7.70
2019-04-20T13:21:22.952Z,4.80
2019-04-20T13:22:22.927Z,4.30
2019-04-20T13:23:22.548Z,6.60
2019-04-20T13:24:23.010Z,4.50
2019-04-20T13:25:23.129Z,4.10
2019-04-20T13:26:22.685Z,4.60
2019-04-20T13:27:22.877Z,4.30
2019-04-20T13:28:23.075Z,4.20
2019-04-20T13:29:22.721Z,4.30
2019-04-20T13:30:21.802Z,4.90
2019-04-20T13:31:21.962Z,4.30
2019-04-20T13:32:23.515Z,3.90
2019-04-20T13:33:23.058Z,4.10
2019-04-20T13:34:22.274Z,4.50
2019-04-20T13:35:22.491Z,4.90
2019-04-20T13:36:22.065Z,4.10
2019-04-20T13:37:22.254Z,3.70
2019-04-20T13:38:22.488Z,3.70
2019-04-20T13:39:22.719Z,4.00